sensor_id;sensor_type;location;lat;lon;timestamp;temperature;humidity
2647;DHT22;1333;50.958;6.770;2023-04-29T00:01:04;13.80;99.90
2647;DHT22;1333;50.958;6.770;2023-04-29T00:03:30;13.80;99.90
2647;DHT22;1333;50.958;6.770;2023-04-29T00:05:59;13.80;99.90
2647;DHT22;1333;50.958;6.770;2023-04-29T00:08:25;13.80;99.90
2647;DHT22;1333;50.958;6.770;2023-04-29T00:10:50;13.80;99.90
2647;DHT22;1333;50.958;6.770;2023-04-29T00:13:16;13.80;99.90
2647;DHT22;1333;50.958;6.770;2023-04-29T00:15:42;13.70;99.90
2647;DHT22;1333;50.958;6.770;2023-04-29T00:18:08;13.70;99.90
2647;DHT22;1333;50.958;6.770;2023-04-29T00:20:34;13.70;99.90
2647;DHT22;1333;50.958;6.770;2023-04-29T00:23:00;13.70;99.90
2647;DHT22;1333;50.958;6.770;2023-04-29T00:25:26;13.70;99.90
2647;DHT22;1333;50.958;6.770;2023-04-29T00:27:51;13.70;99.90
2647;DHT22;1333;50.958;6.770;2023-04-29T00:30:17;13.60;99.90
2647;DHT22;1333;50.958;6.770;2023-04-29T00:32:42;13.60;99.90
2647;DHT22;1333;50.958;6.770;2023-04-29T00:35:09;13.50;99.90
2647;DHT22;1333;50.958;6.770;2023-04-29T00:37:34;13.50;99.90
2647;DHT22;1333;50.958;6.770;2023-04-29T00:40:00;13.50;99.90
2647;DHT22;1333;50.958;6.770;2023-04-29T00:42:26;13.50;99.90
2647;DHT22;1333;50.958;6.770;2023-04-29T00:44:52;13.50;99.90
2647;DHT22;1333;50.958;6.770;2023-04-29T00:47:17;13.40;99.90
2647;DHT22;1333;50.958;6.770;2023-04-29T00:49:43;13.40;99.90
2647;DHT22;1333;50.958;6.770;2023-04-29T00:52:10;13.40;99.90
2647;DHT22;1333;50.958;6.770;2023-04-29T00:54:36;13.30;99.90
2647;DHT22;1333;50.958;6.770;2023-04-29T00:57:03;13.20;99.90
2647;DHT22;1333;50.958;6.770;2023-04-29T00:59:30;13.20;99.90
2647;DHT22;1333;50.958;6.770;2023-04-29T01:02:01;13.20;99.90
2647;DHT22;1333;50.958;6.770;2023-04-29T01:04:31;13.10;99.90
2647;DHT22;1333;50.958;6.770;2023-04-29T01:07:13;13.10;99.90
2647;DHT22;1333;50.958;6.770;2023-04-29T01:12:23;13.10;99.90
2647;DHT22;1333;50.958;6.770;2023-04-29T01:15:03;13.00;99.90
2647;DHT22;1333;50.958;6.770;2023-04-29T01:17:34;13.00;99.90
2647;DHT22;1333;50.958;6.770;2023-04-29T01:20:01;12.90;99.90
2647;DHT22;1333;50.958;6.770;2023-04-29T01:22:27;12.90;99.90
2647;DHT22;1333;50.958;6.770;2023-04-29T01:24:52;12.90;99.90
2647;DHT22;1333;50.958;6.770;2023-04-29T01:32:52;12.90;99.90
2647;DHT22;1333;50.958;6.770;2023-04-29T01:38:19;12.90;99.90
2647;DHT22;1333;50.958;6.770;2023-04-29T01:40:52;12.90;99.90
2647;DHT22;1333;50.958;6.770;2023-04-29T01:43:24;12.90;99.90
2647;DHT22;1333;50.958;6.770;2023-04-29T01:45:53;12.90;99.90
2647;DHT22;1333;50.958;6.770;2023-04-29T01:48:20;12.90;99.90
2647;DHT22;1333;50.958;6.770;2023-04-29T01:50:46;12.90;99.90
2647;DHT22;1333;50.958;6.770;2023-04-29T01:53:12;13.00;99.90
2647;DHT22;1333;50.958;6.770;2023-04-29T01:55:37;13.00;99.90
2647;DHT22;1333;50.958;6.770;2023-04-29T01:58:03;13.00;99.90
2647;DHT22;1333;50.958;6.770;2023-04-29T02:00:28;12.90;99.90
2647;DHT22;1333;50.958;6.770;2023-04-29T02:02:54;12.90;99.90
2647;DHT22;1333;50.958;6.770;2023-04-29T02:05:19;12.90;99.90
2647;DHT22;1333;50.958;6.770;2023-04-29T02:07:45;12.90;99.90
2647;DHT22;1333;50.958;6.770;2023-04-29T02:10:10;12.90;99.90
2647;DHT22;1333;50.958;6.770;2023-04-29T02:12:36;12.80;99.90
2647;DHT22;1333;50.958;6.770;2023-04-29T02:15:02;12.90;99.90
2647;DHT22;1333;50.958;6.770;2023-04-29T02:17:27;12.80;99.90
2647;DHT22;1333;50.958;6.770;2023-04-29T02:19:53;12.80;99.90
2647;DHT22;1333;50.958;6.770;2023-04-29T02:22:21;12.80;99.90
2647;DHT22;1333;50.958;6.770;2023-04-29T02:24:47;12.80;99.90
2647;DHT22;1333;50.958;6.770;2023-04-29T02:27:12;12.80;99.90
2647;DHT22;1333;50.958;6.770;2023-04-29T02:29:38;12.80;99.90
2647;DHT22;1333;50.958;6.770;2023-04-29T02:32:03;12.80;99.90
2647;DHT22;1333;50.958;6.770;2023-04-29T02:34:29;12.80;99.90
2647;DHT22;1333;50.958;6.770;2023-04-29T02:36:56;12.80;99.90
2647;DHT22;1333;50.958;6.770;2023-04-29T02:39:22;12.80;99.90
2647;DHT22;1333;50.958;6.770;2023-04-29T02:41:47;12.80;99.90
2647;DHT22;1333;50.958;6.770;2023-04-29T02:44:13;12.70;99.90
2647;DHT22;1333;50.958;6.770;2023-04-29T02:46:38;12.70;99.90
2647;DHT22;1333;50.958;6.770;2023-04-29T02:49:09;12.70;99.90
2647;DHT22;1333;50.958;6.770;2023-04-29T02:51:35;12.70;99.90
2647;DHT22;1333;50.958;6.770;2023-04-29T02:54:01;12.70;99.90
2647;DHT22;1333;50.958;6.770;2023-04-29T02:56:26;12.60;99.90
2647;DHT22;1333;50.958;6.770;2023-04-29T02:58:52;12.60;99.90
2647;DHT22;1333;50.958;6.770;2023-04-29T03:01:17;12.60;99.90
2647;DHT22;1333;50.958;6.770;2023-04-29T03:03:43;12.60;99.90
2647;DHT22;1333;50.958;6.770;2023-04-29T03:06:08;12.50;99.90
2647;DHT22;1333;50.958;6.770;2023-04-29T03:08:34;12.50;99.90
2647;DHT22;1333;50.958;6.770;2023-04-29T03:11:00;12.40;99.90
2647;DHT22;1333;50.958;6.770;2023-04-29T03:13:25;12.40;99.90
2647;DHT22;1333;50.958;6.770;2023-04-29T03:15:51;12.40;99.90
2647;DHT22;1333;50.958;6.770;2023-04-29T03:18:16;12.40;99.90
2647;DHT22;1333;50.958;6.770;2023-04-29T03:20:42;12.30;99.90
2647;DHT22;1333;50.958;6.770;2023-04-29T03:23:07;12.30;99.90
2647;DHT22;1333;50.958;6.770;2023-04-29T03:25:33;12.30;99.90
2647;DHT22;1333;50.958;6.770;2023-04-29T03:27:58;12.30;99.90
2647;DHT22;1333;50.958;6.770;2023-04-29T03:30:24;12.30;99.90
2647;DHT22;1333;50.958;6.770;2023-04-29T03:32:49;12.30;99.90
2647;DHT22;1333;50.958;6.770;2023-04-29T03:35:15;12.30;99.90
2647;DHT22;1333;50.958;6.770;2023-04-29T03:37:40;12.30;99.90
2647;DHT22;1333;50.958;6.770;2023-04-29T03:40:09;12.20;99.90
2647;DHT22;1333;50.958;6.770;2023-04-29T03:42:35;12.20;99.90
2647;DHT22;1333;50.958;6.770;2023-04-29T03:45:01;12.30;99.90
2647;DHT22;1333;50.958;6.770;2023-04-29T03:47:26;12.30;99.90
2647;DHT22;1333;50.958;6.770;2023-04-29T03:49:52;12.30;99.90
2647;DHT22;1333;50.958;6.770;2023-04-29T03:52:17;12.30;99.90
2647;DHT22;1333;50.958;6.770;2023-04-29T03:54:43;12.30;99.90
2647;DHT22;1333;50.958;6.770;2023-04-29T03:57:08;12.20;99.90
2647;DHT22;1333;50.958;6.770;2023-04-29T03:59:34;12.10;99.90
2647;DHT22;1333;50.958;6.770;2023-04-29T04:02:00;12.10;99.90
2647;DHT22;1333;50.958;6.770;2023-04-29T04:04:25;12.00;99.90
2647;DHT22;1333;50.958;6.770;2023-04-29T04:06:51;11.90;99.90
2647;DHT22;1333;50.958;6.770;2023-04-29T04:09:17;11.90;99.90
2647;DHT22;1333;50.958;6.770;2023-04-29T04:11:43;11.80;99.90
2647;DHT22;1333;50.958;6.770;2023-04-29T04:14:08;11.80;99.90
2647;DHT22;1333;50.958;6.770;2023-04-29T04:16:34;11.80;99.90
2647;DHT22;1333;50.958;6.770;2023-04-29T04:18:59;11.80;99.90
2647;DHT22;1333;50.958;6.770;2023-04-29T04:21:25;11.70;99.90
2647;DHT22;1333;50.958;6.770;2023-04-29T04:23:52;11.70;99.90
2647;DHT22;1333;50.958;6.770;2023-04-29T04:26:17;11.70;99.90
2647;DHT22;1333;50.958;6.770;2023-04-29T04:28:45;11.70;99.90
2647;DHT22;1333;50.958;6.770;2023-04-29T04:31:10;11.70;99.90
2647;DHT22;1333;50.958;6.770;2023-04-29T04:33:36;11.70;99.90
2647;DHT22;1333;50.958;6.770;2023-04-29T04:36:02;11.60;99.90
2647;DHT22;1333;50.958;6.770;2023-04-29T04:38:28;11.60;99.90
2647;DHT22;1333;50.958;6.770;2023-04-29T04:40:53;11.60;99.90
2647;DHT22;1333;50.958;6.770;2023-04-29T04:43:19;11.60;99.90
2647;DHT22;1333;50.958;6.770;2023-04-29T04:45:44;11.60;99.90
2647;DHT22;1333;50.958;6.770;2023-04-29T04:48:10;11.60;99.90
2647;DHT22;1333;50.958;6.770;2023-04-29T04:50:35;11.60;99.90
2647;DHT22;1333;50.958;6.770;2023-04-29T04:53:01;11.60;99.90
2647;DHT22;1333;50.958;6.770;2023-04-29T04:55:27;11.60;99.90
2647;DHT22;1333;50.958;6.770;2023-04-29T04:57:53;11.60;99.90
2647;DHT22;1333;50.958;6.770;2023-04-29T05:00:18;11.60;99.90
2647;DHT22;1333;50.958;6.770;2023-04-29T05:02:44;11.60;99.90
2647;DHT22;1333;50.958;6.770;2023-04-29T05:05:09;11.60;99.90
2647;DHT22;1333;50.958;6.770;2023-04-29T05:07:35;11.60;99.90
2647;DHT22;1333;50.958;6.770;2023-04-29T05:10:01;11.60;99.90
2647;DHT22;1333;50.958;6.770;2023-04-29T05:12:27;11.60;99.90
2647;DHT22;1333;50.958;6.770;2023-04-29T05:14:55;11.70;99.90
2647;DHT22;1333;50.958;6.770;2023-04-29T05:17:21;11.70;99.90
2647;DHT22;1333;50.958;6.770;2023-04-29T05:19:46;11.70;99.90
2647;DHT22;1333;50.958;6.770;2023-04-29T05:22:12;11.70;99.90
2647;DHT22;1333;50.958;6.770;2023-04-29T05:24:37;11.70;99.90
2647;DHT22;1333;50.958;6.770;2023-04-29T05:27:03;11.80;99.90
2647;DHT22;1333;50.958;6.770;2023-04-29T05:29:29;11.80;99.90
2647;DHT22;1333;50.958;6.770;2023-04-29T05:31:54;11.90;99.90
2647;DHT22;1333;50.958;6.770;2023-04-29T05:34:20;11.90;99.90
2647;DHT22;1333;50.958;6.770;2023-04-29T05:36:45;11.90;99.90
2647;DHT22;1333;50.958;6.770;2023-04-29T05:39:11;12.00;99.90
2647;DHT22;1333;50.958;6.770;2023-04-29T05:41:37;12.00;99.90
2647;DHT22;1333;50.958;6.770;2023-04-29T05:44:02;12.00;99.90
2647;DHT22;1333;50.958;6.770;2023-04-29T05:46:28;12.10;99.90
2647;DHT22;1333;50.958;6.770;2023-04-29T05:48:53;12.00;99.90
2647;DHT22;1333;50.958;6.770;2023-04-29T05:51:19;12.10;99.90
2647;DHT22;1333;50.958;6.770;2023-04-29T05:53:44;12.10;99.90
2647;DHT22;1333;50.958;6.770;2023-04-29T05:56:10;12.10;99.90
2647;DHT22;1333;50.958;6.770;2023-04-29T05:58:35;12.10;99.90
2647;DHT22;1333;50.958;6.770;2023-04-29T06:01:01;12.10;99.90
2647;DHT22;1333;50.958;6.770;2023-04-29T06:03:27;12.20;99.90
2647;DHT22;1333;50.958;6.770;2023-04-29T06:05:53;12.20;99.90
2647;DHT22;1333;50.958;6.770;2023-04-29T06:08:19;12.20;99.90
2647;DHT22;1333;50.958;6.770;2023-04-29T06:10:45;12.30;99.90
2647;DHT22;1333;50.958;6.770;2023-04-29T06:13:11;12.20;99.90
2647;DHT22;1333;50.958;6.770;2023-04-29T06:15:37;12.30;99.90
2647;DHT22;1333;50.958;6.770;2023-04-29T06:18:03;12.30;99.90
2647;DHT22;1333;50.958;6.770;2023-04-29T06:20:28;12.40;99.90
2647;DHT22;1333;50.958;6.770;2023-04-29T06:22:54;12.40;99.90
2647;DHT22;1333;50.958;6.770;2023-04-29T06:25:19;12.40;99.90
2647;DHT22;1333;50.958;6.770;2023-04-29T06:27:45;12.40;99.90
2647;DHT22;1333;50.958;6.770;2023-04-29T06:30:11;12.50;99.90
2647;DHT22;1333;50.958;6.770;2023-04-29T06:32:38;12.50;99.90
2647;DHT22;1333;50.958;6.770;2023-04-29T06:35:04;12.50;99.90
2647;DHT22;1333;50.958;6.770;2023-04-29T06:37:29;12.60;99.90
2647;DHT22;1333;50.958;6.770;2023-04-29T06:39:55;12.60;99.90
2647;DHT22;1333;50.958;6.770;2023-04-29T06:42:20;12.70;99.90
2647;DHT22;1333;50.958;6.770;2023-04-29T06:44:46;12.90;99.90
2647;DHT22;1333;50.958;6.770;2023-04-29T06:47:11;13.00;99.90
2647;DHT22;1333;50.958;6.770;2023-04-29T06:49:37;13.20;99.90
2647;DHT22;1333;50.958;6.770;2023-04-29T06:52:03;13.30;99.90
2647;DHT22;1333;50.958;6.770;2023-04-29T06:54:28;13.40;99.90
2647;DHT22;1333;50.958;6.770;2023-04-29T06:56:54;13.50;99.90
2647;DHT22;1333;50.958;6.770;2023-04-29T06:59:19;13.70;99.90
2647;DHT22;1333;50.958;6.770;2023-04-29T07:01:45;13.70;99.90
2647;DHT22;1333;50.958;6.770;2023-04-29T07:04:10;13.90;99.90
2647;DHT22;1333;50.958;6.770;2023-04-29T07:06:36;13.90;99.90
2647;DHT22;1333;50.958;6.770;2023-04-29T07:09:02;14.10;99.90
2647;DHT22;1333;50.958;6.770;2023-04-29T07:11:28;14.30;99.90
2647;DHT22;1333;50.958;6.770;2023-04-29T07:13:54;14.50;99.90
2647;DHT22;1333;50.958;6.770;2023-04-29T07:16:19;14.60;99.90
2647;DHT22;1333;50.958;6.770;2023-04-29T07:18:49;14.60;99.90
2647;DHT22;1333;50.958;6.770;2023-04-29T07:21:15;14.70;99.90
2647;DHT22;1333;50.958;6.770;2023-04-29T07:23:40;14.90;99.90
2647;DHT22;1333;50.958;6.770;2023-04-29T07:26:10;15.00;99.90
2647;DHT22;1333;50.958;6.770;2023-04-29T07:28:36;15.10;99.90
2647;DHT22;1333;50.958;6.770;2023-04-29T07:31:01;15.30;99.90
2647;DHT22;1333;50.958;6.770;2023-04-29T07:33:27;15.40;99.90
2647;DHT22;1333;50.958;6.770;2023-04-29T07:35:53;15.40;99.90
2647;DHT22;1333;50.958;6.770;2023-04-29T07:38:18;15.50;99.90
2647;DHT22;1333;50.958;6.770;2023-04-29T07:40:45;15.50;99.90
2647;DHT22;1333;50.958;6.770;2023-04-29T07:43:11;15.40;99.90
2647;DHT22;1333;50.958;6.770;2023-04-29T07:45:37;15.50;99.90
2647;DHT22;1333;50.958;6.770;2023-04-29T07:48:04;15.40;99.90
2647;DHT22;1333;50.958;6.770;2023-04-29T07:50:33;15.40;99.90
2647;DHT22;1333;50.958;6.770;2023-04-29T07:52:58;15.40;99.90
2647;DHT22;1333;50.958;6.770;2023-04-29T07:55:26;15.30;99.90
2647;DHT22;1333;50.958;6.770;2023-04-29T07:57:54;15.30;99.90
2647;DHT22;1333;50.958;6.770;2023-04-29T08:00:20;15.40;99.90
2647;DHT22;1333;50.958;6.770;2023-04-29T08:02:46;15.50;99.90
2647;DHT22;1333;50.958;6.770;2023-04-29T08:05:14;15.50;99.90
2647;DHT22;1333;50.958;6.770;2023-04-29T08:07:40;15.60;99.90
2647;DHT22;1333;50.958;6.770;2023-04-29T08:10:06;15.70;99.90
2647;DHT22;1333;50.958;6.770;2023-04-29T08:12:31;15.80;99.90
2647;DHT22;1333;50.958;6.770;2023-04-29T08:14:57;15.70;99.90
2647;DHT22;1333;50.958;6.770;2023-04-29T08:17:22;15.50;99.90
2647;DHT22;1333;50.958;6.770;2023-04-29T08:19:48;15.30;99.90
2647;DHT22;1333;50.958;6.770;2023-04-29T08:22:13;15.20;99.90
2647;DHT22;1333;50.958;6.770;2023-04-29T08:24:39;15.10;99.90
2647;DHT22;1333;50.958;6.770;2023-04-29T08:27:07;15.00;99.90
2647;DHT22;1333;50.958;6.770;2023-04-29T08:29:32;14.90;99.90
2647;DHT22;1333;50.958;6.770;2023-04-29T08:31:59;14.90;99.90
2647;DHT22;1333;50.958;6.770;2023-04-29T08:34:24;14.90;99.90
2647;DHT22;1333;50.958;6.770;2023-04-29T08:36:50;14.80;99.90
2647;DHT22;1333;50.958;6.770;2023-04-29T08:39:15;14.80;99.90
2647;DHT22;1333;50.958;6.770;2023-04-29T08:41:41;14.80;99.90
2647;DHT22;1333;50.958;6.770;2023-04-29T08:44:09;14.80;99.90
2647;DHT22;1333;50.958;6.770;2023-04-29T08:46:35;14.90;99.90
2647;DHT22;1333;50.958;6.770;2023-04-29T08:49:02;15.00;99.90
2647;DHT22;1333;50.958;6.770;2023-04-29T08:51:28;15.10;99.90
2647;DHT22;1333;50.958;6.770;2023-04-29T08:53:55;15.30;99.90
2647;DHT22;1333;50.958;6.770;2023-04-29T08:56:21;15.50;99.90
2647;DHT22;1333;50.958;6.770;2023-04-29T08:58:49;15.70;99.90
2647;DHT22;1333;50.958;6.770;2023-04-29T09:01:20;16.00;99.90
2647;DHT22;1333;50.958;6.770;2023-04-29T09:03:50;16.40;99.90
2647;DHT22;1333;50.958;6.770;2023-04-29T09:06:18;16.90;99.90
2647;DHT22;1333;50.958;6.770;2023-04-29T09:08:45;17.30;99.90
2647;DHT22;1333;50.958;6.770;2023-04-29T09:11:11;17.70;99.90
2647;DHT22;1333;50.958;6.770;2023-04-29T09:13:38;18.10;99.90
2647;DHT22;1333;50.958;6.770;2023-04-29T09:16:04;18.40;99.90
2647;DHT22;1333;50.958;6.770;2023-04-29T09:18:44;18.70;99.90
2647;DHT22;1333;50.958;6.770;2023-04-29T09:23:45;18.80;99.90
2647;DHT22;1333;50.958;6.770;2023-04-29T09:26:11;18.80;99.90
2647;DHT22;1333;50.958;6.770;2023-04-29T09:28:36;18.70;99.90
2647;DHT22;1333;50.958;6.770;2023-04-29T09:31:04;18.60;99.90
2647;DHT22;1333;50.958;6.770;2023-04-29T09:33:31;18.50;99.90
2647;DHT22;1333;50.958;6.770;2023-04-29T09:35:57;18.40;99.90
2647;DHT22;1333;50.958;6.770;2023-04-29T09:38:22;18.40;99.90
2647;DHT22;1333;50.958;6.770;2023-04-29T09:40:48;18.30;99.90
2647;DHT22;1333;50.958;6.770;2023-04-29T09:43:16;18.10;99.90
2647;DHT22;1333;50.958;6.770;2023-04-29T09:45:45;17.90;99.90
2647;DHT22;1333;50.958;6.770;2023-04-29T09:48:12;17.60;99.90
2647;DHT22;1333;50.958;6.770;2023-04-29T09:50:40;17.40;99.90
2647;DHT22;1333;50.958;6.770;2023-04-29T09:53:07;17.20;99.90
2647;DHT22;1333;50.958;6.770;2023-04-29T09:58:37;16.90;99.90
2647;DHT22;1333;50.958;6.770;2023-04-29T10:01:05;16.80;99.90
2647;DHT22;1333;50.958;6.770;2023-04-29T10:03:35;16.90;99.90
2647;DHT22;1333;50.958;6.770;2023-04-29T10:06:02;16.80;99.90
2647;DHT22;1333;50.958;6.770;2023-04-29T10:08:28;16.70;99.90
2647;DHT22;1333;50.958;6.770;2023-04-29T10:10:56;16.60;99.90
2647;DHT22;1333;50.958;6.770;2023-04-29T10:13:24;16.50;99.90
2647;DHT22;1333;50.958;6.770;2023-04-29T10:15:59;16.50;99.90
2647;DHT22;1333;50.958;6.770;2023-04-29T10:18:34;16.40;99.90
2647;DHT22;1333;50.958;6.770;2023-04-29T10:21:02;16.30;99.90
2647;DHT22;1333;50.958;6.770;2023-04-29T10:23:32;16.20;99.90
2647;DHT22;1333;50.958;6.770;2023-04-29T10:26:00;16.10;99.90
2647;DHT22;1333;50.958;6.770;2023-04-29T10:28:30;16.10;99.90
2647;DHT22;1333;50.958;6.770;2023-04-29T10:31:00;16.10;99.90
2647;DHT22;1333;50.958;6.770;2023-04-29T10:33:30;16.00;99.90
2647;DHT22;1333;50.958;6.770;2023-04-29T10:35:55;15.90;99.90
2647;DHT22;1333;50.958;6.770;2023-04-29T10:38:43;15.80;99.90
2647;DHT22;1333;50.958;6.770;2023-04-29T10:41:15;15.70;99.90
2647;DHT22;1333;50.958;6.770;2023-04-29T10:43:44;15.70;99.90
2647;DHT22;1333;50.958;6.770;2023-04-29T10:46:24;15.60;99.90
2647;DHT22;1333;50.958;6.770;2023-04-29T10:48:59;15.60;99.90
2647;DHT22;1333;50.958;6.770;2023-04-29T10:51:39;15.70;99.90
2647;DHT22;1333;50.958;6.770;2023-04-29T10:54:16;15.90;99.90
2647;DHT22;1333;50.958;6.770;2023-04-29T10:56:52;16.10;99.90
2647;DHT22;1333;50.958;6.770;2023-04-29T11:02:08;16.20;99.90
2647;DHT22;1333;50.958;6.770;2023-04-29T11:04:34;16.20;99.90
2647;DHT22;1333;50.958;6.770;2023-04-29T11:07:27;16.10;99.90
2647;DHT22;1333;50.958;6.770;2023-04-29T11:09:53;16.00;99.90
2647;DHT22;1333;50.958;6.770;2023-04-29T11:12:19;15.90;99.90
2647;DHT22;1333;50.958;6.770;2023-04-29T11:14:49;15.90;99.90
2647;DHT22;1333;50.958;6.770;2023-04-29T11:17:16;15.80;99.90
2647;DHT22;1333;50.958;6.770;2023-04-29T11:19:51;15.80;99.90
2647;DHT22;1333;50.958;6.770;2023-04-29T11:24:55;15.80;99.90
2647;DHT22;1333;50.958;6.770;2023-04-29T11:27:24;15.80;99.90
2647;DHT22;1333;50.958;6.770;2023-04-29T11:29:54;15.90;99.90
2647;DHT22;1333;50.958;6.770;2023-04-29T11:32:26;15.90;99.90
2647;DHT22;1333;50.958;6.770;2023-04-29T11:34:52;15.90;99.90
2647;DHT22;1333;50.958;6.770;2023-04-29T11:37:25;15.90;99.90
2647;DHT22;1333;50.958;6.770;2023-04-29T11:40:00;15.90;99.90
2647;DHT22;1333;50.958;6.770;2023-04-29T11:42:25;15.80;99.90
2647;DHT22;1333;50.958;6.770;2023-04-29T11:44:53;15.70;99.90
2647;DHT22;1333;50.958;6.770;2023-04-29T11:47:19;15.70;99.90
2647;DHT22;1333;50.958;6.770;2023-04-29T11:49:46;15.60;99.90
2647;DHT22;1333;50.958;6.770;2023-04-29T11:52:11;15.60;99.90
2647;DHT22;1333;50.958;6.770;2023-04-29T11:54:37;15.60;99.90
2647;DHT22;1333;50.958;6.770;2023-04-29T11:57:03;15.70;99.90
2647;DHT22;1333;50.958;6.770;2023-04-29T11:59:30;15.70;99.90
2647;DHT22;1333;50.958;6.770;2023-04-29T12:01:57;15.60;99.90
2647;DHT22;1333;50.958;6.770;2023-04-29T12:04:24;15.70;99.90
2647;DHT22;1333;50.958;6.770;2023-04-29T12:06:56;15.70;99.90
2647;DHT22;1333;50.958;6.770;2023-04-29T12:09:22;15.80;99.90
2647;DHT22;1333;50.958;6.770;2023-04-29T12:11:48;15.90;99.90
2647;DHT22;1333;50.958;6.770;2023-04-29T12:14:17;16.10;99.90
2647;DHT22;1333;50.958;6.770;2023-04-29T12:16:43;16.20;99.90
2647;DHT22;1333;50.958;6.770;2023-04-29T12:19:10;16.40;99.90
2647;DHT22;1333;50.958;6.770;2023-04-29T12:21:47;16.50;99.90
2647;DHT22;1333;50.958;6.770;2023-04-29T12:24:12;16.50;99.90
2647;DHT22;1333;50.958;6.770;2023-04-29T12:26:39;16.60;99.90
2647;DHT22;1333;50.958;6.770;2023-04-29T12:29:09;16.60;99.90
2647;DHT22;1333;50.958;6.770;2023-04-29T12:31:35;16.70;99.90
2647;DHT22;1333;50.958;6.770;2023-04-29T12:34:02;16.90;99.90
2647;DHT22;1333;50.958;6.770;2023-04-29T12:36:28;17.20;99.90
2647;DHT22;1333;50.958;6.770;2023-04-29T12:38:54;17.50;99.90
2647;DHT22;1333;50.958;6.770;2023-04-29T12:41:44;17.80;99.90
2647;DHT22;1333;50.958;6.770;2023-04-29T12:44:09;18.20;99.90
2647;DHT22;1333;50.958;6.770;2023-04-29T12:46:39;18.30;99.90
2647;DHT22;1333;50.958;6.770;2023-04-29T12:49:06;18.50;99.90
2647;DHT22;1333;50.958;6.770;2023-04-29T12:51:35;18.80;99.90
2647;DHT22;1333;50.958;6.770;2023-04-29T12:54:02;18.90;99.90
2647;DHT22;1333;50.958;6.770;2023-04-29T12:56:29;19.00;99.90
2647;DHT22;1333;50.958;6.770;2023-04-29T12:58:55;19.10;99.90
2647;DHT22;1333;50.958;6.770;2023-04-29T13:01:21;19.10;99.90
2647;DHT22;1333;50.958;6.770;2023-04-29T13:03:46;19.20;99.90
2647;DHT22;1333;50.958;6.770;2023-04-29T13:06:14;19.40;99.90
2647;DHT22;1333;50.958;6.770;2023-04-29T13:08:39;19.60;99.90
2647;DHT22;1333;50.958;6.770;2023-04-29T13:11:06;19.90;99.90
2647;DHT22;1333;50.958;6.770;2023-04-29T13:13:31;20.00;99.90
2647;DHT22;1333;50.958;6.770;2023-04-29T13:15:57;20.00;99.90
2647;DHT22;1333;50.958;6.770;2023-04-29T13:18:24;20.10;99.90
2647;DHT22;1333;50.958;6.770;2023-04-29T13:20:50;20.20;99.90
2647;DHT22;1333;50.958;6.770;2023-04-29T13:23:16;20.40;99.90
2647;DHT22;1333;50.958;6.770;2023-04-29T13:25:41;20.60;99.90
2647;DHT22;1333;50.958;6.770;2023-04-29T13:28:07;20.80;99.90
2647;DHT22;1333;50.958;6.770;2023-04-29T13:30:32;20.80;99.90
2647;DHT22;1333;50.958;6.770;2023-04-29T13:32:58;20.90;99.90
2647;DHT22;1333;50.958;6.770;2023-04-29T13:35:23;20.90;99.90
2647;DHT22;1333;50.958;6.770;2023-04-29T13:37:49;20.90;99.90
2647;DHT22;1333;50.958;6.770;2023-04-29T13:40:14;20.80;99.90
2647;DHT22;1333;50.958;6.770;2023-04-29T13:42:40;20.70;99.90
2647;DHT22;1333;50.958;6.770;2023-04-29T13:45:06;20.60;99.90
2647;DHT22;1333;50.958;6.770;2023-04-29T13:47:32;20.70;99.90
2647;DHT22;1333;50.958;6.770;2023-04-29T13:49:57;20.60;99.90
2647;DHT22;1333;50.958;6.770;2023-04-29T13:52:23;20.70;99.90
2647;DHT22;1333;50.958;6.770;2023-04-29T13:54:48;20.80;99.90
2647;DHT22;1333;50.958;6.770;2023-04-29T13:57:14;20.90;99.90
2647;DHT22;1333;50.958;6.770;2023-04-29T13:59:40;21.00;99.90
2647;DHT22;1333;50.958;6.770;2023-04-29T14:02:06;21.20;99.90
2647;DHT22;1333;50.958;6.770;2023-04-29T14:04:31;21.40;99.00
2647;DHT22;1333;50.958;6.770;2023-04-29T14:06:57;21.50;98.50
2647;DHT22;1333;50.958;6.770;2023-04-29T14:09:22;21.70;97.90
2647;DHT22;1333;50.958;6.770;2023-04-29T14:11:48;21.80;96.90
2647;DHT22;1333;50.958;6.770;2023-04-29T14:14:15;21.80;95.90
2647;DHT22;1333;50.958;6.770;2023-04-29T14:16:40;21.90;95.70
2647;DHT22;1333;50.958;6.770;2023-04-29T14:19:06;22.00;95.40
2647;DHT22;1333;50.958;6.770;2023-04-29T14:21:32;22.10;93.70
2647;DHT22;1333;50.958;6.770;2023-04-29T14:23:58;22.10;92.70
2647;DHT22;1333;50.958;6.770;2023-04-29T14:26:25;22.20;91.70
2647;DHT22;1333;50.958;6.770;2023-04-29T14:28:51;22.10;90.90
2647;DHT22;1333;50.958;6.770;2023-04-29T14:31:22;22.00;91.00
2647;DHT22;1333;50.958;6.770;2023-04-29T14:33:48;21.90;90.00
2647;DHT22;1333;50.958;6.770;2023-04-29T14:36:15;21.60;89.50
2647;DHT22;1333;50.958;6.770;2023-04-29T14:38:40;21.40;89.30
2647;DHT22;1333;50.958;6.770;2023-04-29T14:41:06;21.10;89.70
2647;DHT22;1333;50.958;6.770;2023-04-29T14:43:32;20.80;90.40
2647;DHT22;1333;50.958;6.770;2023-04-29T14:45:57;20.50;91.20
2647;DHT22;1333;50.958;6.770;2023-04-29T14:48:23;20.30;92.80
2647;DHT22;1333;50.958;6.770;2023-04-29T14:50:48;20.10;93.00
2647;DHT22;1333;50.958;6.770;2023-04-29T14:53:14;19.80;93.40
2647;DHT22;1333;50.958;6.770;2023-04-29T14:55:39;19.60;94.30
2647;DHT22;1333;50.958;6.770;2023-04-29T14:58:05;19.50;95.80
2647;DHT22;1333;50.958;6.770;2023-04-29T15:00:33;19.40;97.10
2647;DHT22;1333;50.958;6.770;2023-04-29T15:02:58;19.40;98.70
2647;DHT22;1333;50.958;6.770;2023-04-29T15:05:24;19.40;99.30
2647;DHT22;1333;50.958;6.770;2023-04-29T15:07:49;19.40;99.90
2647;DHT22;1333;50.958;6.770;2023-04-29T15:10:15;19.40;99.90
2647;DHT22;1333;50.958;6.770;2023-04-29T15:12:41;19.30;99.90
2647;DHT22;1333;50.958;6.770;2023-04-29T15:15:07;19.30;99.90
2647;DHT22;1333;50.958;6.770;2023-04-29T15:17:33;19.20;99.90
2647;DHT22;1333;50.958;6.770;2023-04-29T15:19:58;19.10;99.90
2647;DHT22;1333;50.958;6.770;2023-04-29T15:22:24;19.00;99.90
2647;DHT22;1333;50.958;6.770;2023-04-29T15:24:49;18.80;99.90
2647;DHT22;1333;50.958;6.770;2023-04-29T15:27:16;18.60;99.90
2647;DHT22;1333;50.958;6.770;2023-04-29T15:29:42;18.40;99.90
2647;DHT22;1333;50.958;6.770;2023-04-29T15:32:07;18.30;99.90
2647;DHT22;1333;50.958;6.770;2023-04-29T15:34:34;18.20;99.90
2647;DHT22;1333;50.958;6.770;2023-04-29T15:37:00;18.00;99.90
2647;DHT22;1333;50.958;6.770;2023-04-29T15:39:26;17.80;99.90
2647;DHT22;1333;50.958;6.770;2023-04-29T15:41:52;17.70;99.90
2647;DHT22;1333;50.958;6.770;2023-04-29T15:44:18;17.60;99.90
2647;DHT22;1333;50.958;6.770;2023-04-29T15:46:43;17.50;99.90
2647;DHT22;1333;50.958;6.770;2023-04-29T15:49:09;17.40;99.90
2647;DHT22;1333;50.958;6.770;2023-04-29T15:51:34;17.40;99.90
2647;DHT22;1333;50.958;6.770;2023-04-29T15:54:00;17.30;99.90
2647;DHT22;1333;50.958;6.770;2023-04-29T15:56:25;17.20;99.90
2647;DHT22;1333;50.958;6.770;2023-04-29T15:58:51;17.20;99.90
2647;DHT22;1333;50.958;6.770;2023-04-29T16:01:17;17.10;99.90
2647;DHT22;1333;50.958;6.770;2023-04-29T16:03:42;17.10;99.90
2647;DHT22;1333;50.958;6.770;2023-04-29T16:06:08;17.00;99.90
2647;DHT22;1333;50.958;6.770;2023-04-29T16:08:34;17.00;99.90
2647;DHT22;1333;50.958;6.770;2023-04-29T16:10:59;16.90;99.90
2647;DHT22;1333;50.958;6.770;2023-04-29T16:13:25;16.90;99.90
2647;DHT22;1333;50.958;6.770;2023-04-29T16:15:51;16.90;99.90
2647;DHT22;1333;50.958;6.770;2023-04-29T16:18:16;16.80;99.90
2647;DHT22;1333;50.958;6.770;2023-04-29T16:20:42;16.80;99.90